sensor_id;sensor_type;location;lat;lon;timestamp;P1;durP1;ratioP1;P2;durP2;ratioP2
72301;SDS011;73902;52.234;5.186;2024-03-29T00:01:21;7.00;;;0.98;;
72301;SDS011;73902;52.234;5.186;2024-03-29T00:03:47;9.00;;;1.05;;
72301;SDS011;73902;52.234;5.186;2024-03-29T00:06:13;6.88;;;1.10;;
72301;SDS011;73902;52.234;5.186;2024-03-29T00:08:39;5.25;;;0.98;;
72301;SDS011;73902;52.234;5.186;2024-03-29T00:11:05;2.42;;;0.60;;
72301;SDS011;73902;52.234;5.186;2024-03-29T00:13:31;5.78;;;1.00;;
72301;SDS011;73902;52.234;5.186;2024-03-29T00:15:57;6.78;;;1.40;;
72301;SDS011;73902;52.234;5.186;2024-03-29T00:18:23;5.47;;;0.90;;
72301;SDS011;73902;52.234;5.186;2024-03-29T00:20:49;8.55;;;1.42;;
72301;SDS011;73902;52.234;5.186;2024-03-29T00:23:15;11.35;;;1.48;;
72301;SDS011;73902;52.234;5.186;2024-03-29T00:25:42;5.82;;;0.80;;
72301;SDS011;73902;52.234;5.186;2024-03-29T00:28:08;10.23;;;1.00;;
72301;SDS011;73902;52.234;5.186;2024-03-29T00:30:34;6.10;;;1.00;;
72301;SDS011;73902;52.234;5.186;2024-03-29T00:33:00;4.63;;;0.82;;
72301;SDS011;73902;52.234;5.186;2024-03-29T00:35:26;7.63;;;1.27;;
72301;SDS011;73902;52.234;5.186;2024-03-29T00:37:52;5.65;;;0.90;;
72301;SDS011;73902;52.234;5.186;2024-03-29T00:40:18;4.00;;;0.90;;
72301;SDS011;73902;52.234;5.186;2024-03-29T00:42:44;6.93;;;0.90;;
72301;SDS011;73902;52.234;5.186;2024-03-29T00:45:10;8.05;;;1.08;;
72301;SDS011;73902;52.234;5.186;2024-03-29T00:47:36;5.40;;;0.93;;
72301;SDS011;73902;52.234;5.186;2024-03-29T00:50:02;8.32;;;1.02;;
72301;SDS011;73902;52.234;5.186;2024-03-29T00:52:28;6.32;;;1.00;;
72301;SDS011;73902;52.234;5.186;2024-03-29T00:54:54;4.72;;;1.02;;
72301;SDS011;73902;52.234;5.186;2024-03-29T00:57:19;6.90;;;0.90;;
72301;SDS011;73902;52.234;5.186;2024-03-29T00:59:46;6.07;;;0.90;;
72301;SDS011;73902;52.234;5.186;2024-03-29T01:02:12;5.00;;;0.85;;
72301;SDS011;73902;52.234;5.186;2024-03-29T01:04:38;3.28;;;0.60;;
72301;SDS011;73902;52.234;5.186;2024-03-29T01:07:05;4.07;;;0.70;;
72301;SDS011;73902;52.234;5.186;2024-03-29T01:09:31;4.57;;;0.65;;
72301;SDS011;73902;52.234;5.186;2024-03-29T01:11:57;7.40;;;0.93;;
72301;SDS011;73902;52.234;5.186;2024-03-29T01:14:23;4.47;;;1.08;;
72301;SDS011;73902;52.234;5.186;2024-03-29T01:16:49;6.43;;;0.90;;
72301;SDS011;73902;52.234;5.186;2024-03-29T01:19:15;6.38;;;0.90;;
72301;SDS011;73902;52.234;5.186;2024-03-29T01:21:41;5.47;;;0.88;;
72301;SDS011;73902;52.234;5.186;2024-03-29T01:24:07;5.40;;;0.80;;
72301;SDS011;73902;52.234;5.186;2024-03-29T01:26:33;6.95;;;0.95;;
72301;SDS011;73902;52.234;5.186;2024-03-29T01:29:00;4.35;;;1.00;;
72301;SDS011;73902;52.234;5.186;2024-03-29T01:31:25;5.72;;;0.82;;
72301;SDS011;73902;52.234;5.186;2024-03-29T01:33:51;5.10;;;0.82;;
72301;SDS011;73902;52.234;5.186;2024-03-29T01:38:47;5.90;;;0.80;;
72301;SDS011;73902;52.234;5.186;2024-03-29T01:41:14;7.25;;;0.70;;
72301;SDS011;73902;52.234;5.186;2024-03-29T01:43:40;8.55;;;1.50;;
72301;SDS011;73902;52.234;5.186;2024-03-29T01:46:06;2.90;;;0.65;;
72301;SDS011;73902;52.234;5.186;2024-03-29T01:48:33;5.93;;;1.65;;
72301;SDS011;73902;52.234;5.186;2024-03-29T01:50:59;3.22;;;0.80;;
72301;SDS011;73902;52.234;5.186;2024-03-29T01:53:25;6.57;;;1.05;;
72301;SDS011;73902;52.234;5.186;2024-03-29T01:55:52;7.63;;;1.05;;
72301;SDS011;73902;52.234;5.186;2024-03-29T01:58:18;5.32;;;0.80;;
72301;SDS011;73902;52.234;5.186;2024-03-29T02:00:48;3.00;;;0.55;;
72301;SDS011;73902;52.234;5.186;2024-03-29T02:03:16;5.90;;;1.23;;
72301;SDS011;73902;52.234;5.186;2024-03-29T02:05:42;5.18;;;0.98;;
72301;SDS011;73902;52.234;5.186;2024-03-29T02:08:12;3.05;;;0.80;;
72301;SDS011;73902;52.234;5.186;2024-03-29T02:10:39;5.72;;;0.98;;
72301;SDS011;73902;52.234;5.186;2024-03-29T02:13:05;5.15;;;0.95;;
72301;SDS011;73902;52.234;5.186;2024-03-29T02:15:31;5.60;;;0.85;;
72301;SDS011;73902;52.234;5.186;2024-03-29T02:17:57;5.07;;;0.63;;
72301;SDS011;73902;52.234;5.186;2024-03-29T02:20:24;4.60;;;0.77;;
72301;SDS011;73902;52.234;5.186;2024-03-29T02:22:53;6.40;;;0.77;;
72301;SDS011;73902;52.234;5.186;2024-03-29T02:25:19;6.70;;;0.80;;
72301;SDS011;73902;52.234;5.186;2024-03-29T02:27:45;5.07;;;0.70;;
72301;SDS011;73902;52.234;5.186;2024-03-29T02:30:13;5.22;;;0.80;;
72301;SDS011;73902;52.234;5.186;2024-03-29T02:32:40;5.22;;;0.85;;
72301;SDS011;73902;52.234;5.186;2024-03-29T02:35:06;7.45;;;0.98;;
72301;SDS011;73902;52.234;5.186;2024-03-29T02:37:32;4.30;;;0.80;;
72301;SDS011;73902;52.234;5.186;2024-03-29T02:39:58;3.28;;;0.70;;
72301;SDS011;73902;52.234;5.186;2024-03-29T02:42:24;7.72;;;1.02;;
72301;SDS011;73902;52.234;5.186;2024-03-29T02:44:50;7.18;;;0.65;;
72301;SDS011;73902;52.234;5.186;2024-03-29T02:47:16;6.00;;;0.85;;
72301;SDS011;73902;52.234;5.186;2024-03-29T02:49:42;3.67;;;0.88;;
72301;SDS011;73902;52.234;5.186;2024-03-29T02:52:08;7.85;;;1.13;;
72301;SDS011;73902;52.234;5.186;2024-03-29T02:54:34;3.78;;;0.82;;
72301;SDS011;73902;52.234;5.186;2024-03-29T02:57:00;4.05;;;0.63;;
72301;SDS011;73902;52.234;5.186;2024-03-29T02:59:26;6.45;;;1.00;;
72301;SDS011;73902;52.234;5.186;2024-03-29T03:01:52;5.43;;;0.88;;
72301;SDS011;73902;52.234;5.186;2024-03-29T03:04:18;5.13;;;0.88;;
72301;SDS011;73902;52.234;5.186;2024-03-29T03:06:43;4.85;;;0.77;;
72301;SDS011;73902;52.234;5.186;2024-03-29T03:09:10;6.05;;;0.95;;
72301;SDS011;73902;52.234;5.186;2024-03-29T03:11:54;5.28;;;0.70;;
72301;SDS011;73902;52.234;5.186;2024-03-29T03:14:20;7.57;;;1.65;;
72301;SDS011;73902;52.234;5.186;2024-03-29T03:16:46;7.70;;;1.00;;
72301;SDS011;73902;52.234;5.186;2024-03-29T03:19:13;8.07;;;0.80;;
72301;SDS011;73902;52.234;5.186;2024-03-29T03:21:39;3.75;;;1.40;;
72301;SDS011;73902;52.234;5.186;2024-03-29T03:24:05;3.22;;;0.57;;
72301;SDS011;73902;52.234;5.186;2024-03-29T03:26:31;4.25;;;0.77;;
72301;SDS011;73902;52.234;5.186;2024-03-29T03:28:57;2.38;;;0.80;;
72301;SDS011;73902;52.234;5.186;2024-03-29T03:31:23;4.97;;;1.17;;
72301;SDS011;73902;52.234;5.186;2024-03-29T03:33:49;7.82;;;1.00;;
72301;SDS011;73902;52.234;5.186;2024-03-29T03:36:15;6.10;;;1.00;;
72301;SDS011;73902;52.234;5.186;2024-03-29T03:38:41;5.38;;;0.70;;
72301;SDS011;73902;52.234;5.186;2024-03-29T03:41:07;5.57;;;0.75;;
72301;SDS011;73902;52.234;5.186;2024-03-29T03:43:33;5.80;;;1.00;;
72301;SDS011;73902;52.234;5.186;2024-03-29T03:46:02;3.05;;;0.70;;
72301;SDS011;73902;52.234;5.186;2024-03-29T03:50:54;4.32;;;0.70;;
72301;SDS011;73902;52.234;5.186;2024-03-29T03:53:20;4.82;;;1.05;;
72301;SDS011;73902;52.234;5.186;2024-03-29T03:55:46;8.05;;;1.02;;
72301;SDS011;73902;52.234;5.186;2024-03-29T03:58:13;3.95;;;0.80;;
72301;SDS011;73902;52.234;5.186;2024-03-29T04:00:39;5.85;;;0.70;;
72301;SDS011;73902;52.234;5.186;2024-03-29T04:03:05;3.92;;;0.82;;
72301;SDS011;73902;52.234;5.186;2024-03-29T04:05:31;5.47;;;0.90;;
72301;SDS011;73902;52.234;5.186;2024-03-29T04:07:57;5.15;;;1.20;;
72301;SDS011;73902;52.234;5.186;2024-03-29T04:10:23;3.88;;;0.60;;
72301;SDS011;73902;52.234;5.186;2024-03-29T04:12:52;4.88;;;0.80;;
72301;SDS011;73902;52.234;5.186;2024-03-29T04:15:18;2.90;;;0.57;;
72301;SDS011;73902;52.234;5.186;2024-03-29T04:17:44;4.10;;;0.60;;
72301;SDS011;73902;52.234;5.186;2024-03-29T04:20:10;4.68;;;0.65;;
72301;SDS011;73902;52.234;5.186;2024-03-29T04:22:36;6.80;;;0.88;;
72301;SDS011;73902;52.234;5.186;2024-03-29T04:25:02;5.95;;;0.98;;
72301;SDS011;73902;52.234;5.186;2024-03-29T04:27:28;4.05;;;0.95;;
72301;SDS011;73902;52.234;5.186;2024-03-29T04:29:55;4.00;;;0.73;;
72301;SDS011;73902;52.234;5.186;2024-03-29T04:32:21;4.03;;;0.60;;
72301;SDS011;73902;52.234;5.186;2024-03-29T04:34:50;4.43;;;0.90;;
72301;SDS011;73902;52.234;5.186;2024-03-29T04:37:17;2.65;;;0.50;;
72301;SDS011;73902;52.234;5.186;2024-03-29T04:39:43;4.63;;;0.60;;
72301;SDS011;73902;52.234;5.186;2024-03-29T04:42:10;4.18;;;0.80;;
72301;SDS011;73902;52.234;5.186;2024-03-29T04:44:36;3.28;;;0.73;;
72301;SDS011;73902;52.234;5.186;2024-03-29T04:47:02;5.60;;;0.80;;
72301;SDS011;73902;52.234;5.186;2024-03-29T04:49:28;1.25;;;0.30;;
72301;SDS011;73902;52.234;5.186;2024-03-29T04:52:04;5.70;;;0.70;;
72301;SDS011;73902;52.234;5.186;2024-03-29T04:54:31;5.45;;;0.77;;
72301;SDS011;73902;52.234;5.186;2024-03-29T04:56:57;2.90;;;0.55;;
72301;SDS011;73902;52.234;5.186;2024-03-29T04:59:23;5.55;;;0.90;;
72301;SDS011;73902;52.234;5.186;2024-03-29T05:01:49;3.42;;;0.50;;
72301;SDS011;73902;52.234;5.186;2024-03-29T05:04:16;5.10;;;0.90;;
72301;SDS011;73902;52.234;5.186;2024-03-29T05:06:44;2.55;;;0.47;;
72301;SDS011;73902;52.234;5.186;2024-03-29T05:09:10;3.42;;;0.60;;
72301;SDS011;73902;52.234;5.186;2024-03-29T05:11:37;2.60;;;0.55;;
72301;SDS011;73902;52.234;5.186;2024-03-29T05:14:03;1.45;;;0.40;;
72301;SDS011;73902;52.234;5.186;2024-03-29T05:16:29;3.05;;;0.60;;
72301;SDS011;73902;52.234;5.186;2024-03-29T05:18:55;2.55;;;0.70;;
72301;SDS011;73902;52.234;5.186;2024-03-29T05:21:21;2.13;;;0.30;;
72301;SDS011;73902;52.234;5.186;2024-03-29T05:23:47;1.90;;;0.30;;
72301;SDS011;73902;52.234;5.186;2024-03-29T05:26:13;2.08;;;0.22;;
72301;SDS011;73902;52.234;5.186;2024-03-29T05:28:39;3.50;;;0.50;;
72301;SDS011;73902;52.234;5.186;2024-03-29T05:31:12;2.95;;;0.52;;
72301;SDS011;73902;52.234;5.186;2024-03-29T05:33:39;3.45;;;0.40;;
72301;SDS011;73902;52.234;5.186;2024-03-29T05:36:05;1.60;;;0.30;;
72301;SDS011;73902;52.234;5.186;2024-03-29T05:38:33;1.70;;;0.40;;
72301;SDS011;73902;52.234;5.186;2024-03-29T05:40:59;2.28;;;0.20;;
72301;SDS011;73902;52.234;5.186;2024-03-29T05:43:25;1.63;;;0.50;;
72301;SDS011;73902;52.234;5.186;2024-03-29T05:45:54;3.20;;;0.60;;
72301;SDS011;73902;52.234;5.186;2024-03-29T05:50:46;1.80;;;0.32;;
72301;SDS011;73902;52.234;5.186;2024-03-29T05:53:12;1.73;;;0.30;;
72301;SDS011;73902;52.234;5.186;2024-03-29T05:55:38;1.92;;;0.30;;
72301;SDS011;73902;52.234;5.186;2024-03-29T05:58:04;2.03;;;0.52;;
72301;SDS011;73902;52.234;5.186;2024-03-29T06:00:31;4.25;;;0.57;;
72301;SDS011;73902;52.234;5.186;2024-03-29T06:03:01;2.60;;;0.50;;
72301;SDS011;73902;52.234;5.186;2024-03-29T06:05:27;1.90;;;0.77;;
72301;SDS011;73902;52.234;5.186;2024-03-29T06:07:54;3.72;;;0.57;;
72301;SDS011;73902;52.234;5.186;2024-03-29T06:10:20;4.40;;;0.70;;
72301;SDS011;73902;52.234;5.186;2024-03-29T06:12:46;2.28;;;0.50;;
72301;SDS011;73902;52.234;5.186;2024-03-29T06:15:11;3.63;;;0.57;;
72301;SDS011;73902;52.234;5.186;2024-03-29T06:17:56;2.92;;;0.68;;
72301;SDS011;73902;52.234;5.186;2024-03-29T06:20:22;2.33;;;0.50;;
72301;SDS011;73902;52.234;5.186;2024-03-29T06:22:48;2.88;;;0.65;;
72301;SDS011;73902;52.234;5.186;2024-03-29T06:25:14;2.05;;;0.57;;
72301;SDS011;73902;52.234;5.186;2024-03-29T06:27:40;1.40;;;0.35;;
72301;SDS011;73902;52.234;5.186;2024-03-29T06:30:08;3.03;;;0.60;;
72301;SDS011;73902;52.234;5.186;2024-03-29T06:32:34;1.60;;;0.40;;
72301;SDS011;73902;52.234;5.186;2024-03-29T06:35:02;3.65;;;0.47;;
72301;SDS011;73902;52.234;5.186;2024-03-29T06:37:28;3.50;;;0.60;;
72301;SDS011;73902;52.234;5.186;2024-03-29T06:39:54;1.95;;;0.43;;
72301;SDS011;73902;52.234;5.186;2024-03-29T06:42:20;2.50;;;0.60;;
72301;SDS011;73902;52.234;5.186;2024-03-29T06:44:46;4.03;;;0.73;;
72301;SDS011;73902;52.234;5.186;2024-03-29T06:47:12;4.85;;;0.70;;
72301;SDS011;73902;52.234;5.186;2024-03-29T06:49:38;2.70;;;0.80;;
72301;SDS011;73902;52.234;5.186;2024-03-29T06:52:04;3.67;;;0.60;;
72301;SDS011;73902;52.234;5.186;2024-03-29T06:54:30;4.80;;;1.00;;
72301;SDS011;73902;52.234;5.186;2024-03-29T06:56:58;4.82;;;0.75;;
72301;SDS011;73902;52.234;5.186;2024-03-29T06:59:24;3.47;;;0.52;;
72301;SDS011;73902;52.234;5.186;2024-03-29T07:01:50;2.83;;;0.65;;
72301;SDS011;73902;52.234;5.186;2024-03-29T07:04:20;3.95;;;0.52;;
72301;SDS011;73902;52.234;5.186;2024-03-29T07:06:46;2.83;;;0.50;;
72301;SDS011;73902;52.234;5.186;2024-03-29T07:09:22;3.35;;;0.82;;
72301;SDS011;73902;52.234;5.186;2024-03-29T07:11:49;3.33;;;0.50;;
72301;SDS011;73902;52.234;5.186;2024-03-29T07:14:15;3.25;;;0.60;;
72301;SDS011;73902;52.234;5.186;2024-03-29T07:16:45;3.10;;;0.57;;
72301;SDS011;73902;52.234;5.186;2024-03-29T07:19:11;1.25;;;0.38;;
72301;SDS011;73902;52.234;5.186;2024-03-29T07:21:39;1.27;;;0.40;;
72301;SDS011;73902;52.234;5.186;2024-03-29T07:24:05;2.33;;;0.60;;
72301;SDS011;73902;52.234;5.186;2024-03-29T07:26:32;1.92;;;0.57;;
72301;SDS011;73902;52.234;5.186;2024-03-29T07:28:58;1.73;;;0.50;;
72301;SDS011;73902;52.234;5.186;2024-03-29T07:31:24;1.50;;;0.50;;
72301;SDS011;73902;52.234;5.186;2024-03-29T07:33:50;4.93;;;0.73;;
72301;SDS011;73902;52.234;5.186;2024-03-29T07:36:16;3.38;;;0.68;;
72301;SDS011;73902;52.234;5.186;2024-03-29T07:38:42;2.28;;;0.50;;
72301;SDS011;73902;52.234;5.186;2024-03-29T07:41:11;2.88;;;0.43;;
72301;SDS011;73902;52.234;5.186;2024-03-29T07:43:50;1.75;;;0.60;;
72301;SDS011;73902;52.234;5.186;2024-03-29T07:46:18;2.60;;;0.40;;
72301;SDS011;73902;52.234;5.186;2024-03-29T07:48:44;1.15;;;0.35;;
72301;SDS011;73902;52.234;5.186;2024-03-29T07:51:10;2.25;;;0.40;;
72301;SDS011;73902;52.234;5.186;2024-03-29T07:53:36;1.90;;;0.47;;
72301;SDS011;73902;52.234;5.186;2024-03-29T07:56:02;2.10;;;0.30;;
72301;SDS011;73902;52.234;5.186;2024-03-29T07:58:28;5.13;;;0.63;;
72301;SDS011;73902;52.234;5.186;2024-03-29T08:00:54;6.65;;;0.82;;
72301;SDS011;73902;52.234;5.186;2024-03-29T08:03:20;2.85;;;0.63;;
72301;SDS011;73902;52.234;5.186;2024-03-29T08:05:58;2.40;;;0.50;;
72301;SDS011;73902;52.234;5.186;2024-03-29T08:08:25;3.03;;;0.45;;
72301;SDS011;73902;52.234;5.186;2024-03-29T08:10:52;2.65;;;0.38;;
72301;SDS011;73902;52.234;5.186;2024-03-29T08:13:18;4.63;;;0.65;;
72301;SDS011;73902;52.234;5.186;2024-03-29T08:15:46;2.33;;;0.50;;
72301;SDS011;73902;52.234;5.186;2024-03-29T08:18:12;2.60;;;0.50;;
72301;SDS011;73902;52.234;5.186;2024-03-29T08:20:38;1.40;;;0.40;;
72301;SDS011;73902;52.234;5.186;2024-03-29T08:23:04;3.83;;;0.77;;
72301;SDS011;73902;52.234;5.186;2024-03-29T08:25:30;2.95;;;0.50;;
72301;SDS011;73902;52.234;5.186;2024-03-29T08:27:56;3.83;;;0.77;;
72301;SDS011;73902;52.234;5.186;2024-03-29T08:30:26;2.40;;;0.43;;
72301;SDS011;73902;52.234;5.186;2024-03-29T08:32:56;2.53;;;0.47;;
72301;SDS011;73902;52.234;5.186;2024-03-29T08:35:24;1.33;;;0.47;;
72301;SDS011;73902;52.234;5.186;2024-03-29T08:37:50;1.60;;;0.43;;
72301;SDS011;73902;52.234;5.186;2024-03-29T08:40:16;1.73;;;0.60;;
72301;SDS011;73902;52.234;5.186;2024-03-29T08:42:42;0.95;;;0.30;;
72301;SDS011;73902;52.234;5.186;2024-03-29T08:45:09;3.67;;;0.60;;
72301;SDS011;73902;52.234;5.186;2024-03-29T08:47:35;2.20;;;0.40;;
72301;SDS011;73902;52.234;5.186;2024-03-29T08:50:01;2.50;;;0.50;;
72301;SDS011;73902;52.234;5.186;2024-03-29T08:52:28;2.55;;;0.43;;
72301;SDS011;73902;52.234;5.186;2024-03-29T08:54:54;1.30;;;0.30;;
72301;SDS011;73902;52.234;5.186;2024-03-29T08:57:21;1.02;;;0.40;;
72301;SDS011;73902;52.234;5.186;2024-03-29T08:59:47;2.20;;;0.45;;
72301;SDS011;73902;52.234;5.186;2024-03-29T09:02:13;2.70;;;0.40;;
72301;SDS011;73902;52.234;5.186;2024-03-29T09:04:39;2.03;;;0.43;;
72301;SDS011;73902;52.234;5.186;2024-03-29T09:07:05;1.85;;;0.43;;
72301;SDS011;73902;52.234;5.186;2024-03-29T09:09:31;3.10;;;0.60;;
72301;SDS011;73902;52.234;5.186;2024-03-29T09:11:57;3.00;;;0.60;;
72301;SDS011;73902;52.234;5.186;2024-03-29T09:14:23;1.65;;;0.25;;
72301;SDS011;73902;52.234;5.186;2024-03-29T09:16:50;2.30;;;0.40;;
72301;SDS011;73902;52.234;5.186;2024-03-29T09:19:16;2.15;;;0.60;;
72301;SDS011;73902;52.234;5.186;2024-03-29T09:21:42;2.67;;;0.65;;
72301;SDS011;73902;52.234;5.186;2024-03-29T09:24:08;1.02;;;0.30;;
72301;SDS011;73902;52.234;5.186;2024-03-29T09:26:34;1.85;;;0.32;;
72301;SDS011;73902;52.234;5.186;2024-03-29T09:29:00;1.77;;;0.50;;
72301;SDS011;73902;52.234;5.186;2024-03-29T09:31:26;2.88;;;0.70;;
72301;SDS011;73902;52.234;5.186;2024-03-29T09:33:52;1.73;;;0.55;;
72301;SDS011;73902;52.234;5.186;2024-03-29T09:36:22;4.07;;;0.95;;
72301;SDS011;73902;52.234;5.186;2024-03-29T09:38:51;1.48;;;0.47;;
72301;SDS011;73902;52.234;5.186;2024-03-29T09:43:46;2.58;;;0.60;;
72301;SDS011;73902;52.234;5.186;2024-03-29T09:46:12;3.90;;;0.77;;
72301;SDS011;73902;52.234;5.186;2024-03-29T09:48:42;2.75;;;0.70;;
72301;SDS011;73902;52.234;5.186;2024-03-29T09:51:10;2.35;;;0.70;;
72301;SDS011;73902;52.234;5.186;2024-03-29T09:53:39;6.97;;;0.70;;
72301;SDS011;73902;52.234;5.186;2024-03-29T09:56:06;1.90;;;0.40;;
72301;SDS011;73902;52.234;5.186;2024-03-29T09:58:33;1.83;;;0.40;;
72301;SDS011;73902;52.234;5.186;2024-03-29T10:01:00;2.50;;;0.50;;
72301;SDS011;73902;52.234;5.186;2024-03-29T10:03:26;4.53;;;0.73;;
72301;SDS011;73902;52.234;5.186;2024-03-29T10:06:01;2.42;;;0.63;;
72301;SDS011;73902;52.234;5.186;2024-03-29T10:08:28;2.60;;;0.50;;
72301;SDS011;73902;52.234;5.186;2024-03-29T10:10:55;4.55;;;0.68;;
72301;SDS011;73902;52.234;5.186;2024-03-29T10:13:21;6.88;;;0.70;;
72301;SDS011;73902;52.234;5.186;2024-03-29T10:15:54;7.32;;;0.85;;
72301;SDS011;73902;52.234;5.186;2024-03-29T10:18:23;5.03;;;0.95;;
72301;SDS011;73902;52.234;5.186;2024-03-29T10:21:03;3.88;;;0.85;;
72301;SDS011;73902;52.234;5.186;2024-03-29T10:23:30;4.45;;;1.00;;
72301;SDS011;73902;52.234;5.186;2024-03-29T10:25:56;4.13;;;0.93;;
72301;SDS011;73902;52.234;5.186;2024-03-29T10:28:23;23.52;;;1.88;;
72301;SDS011;73902;52.234;5.186;2024-03-29T10:30:49;5.85;;;1.17;;
72301;SDS011;73902;52.234;5.186;2024-03-29T10:33:18;3.33;;;0.73;;
72301;SDS011;73902;52.234;5.186;2024-03-29T10:35:44;4.85;;;1.08;;
72301;SDS011;73902;52.234;5.186;2024-03-29T10:38:10;4.93;;;0.95;;
72301;SDS011;73902;52.234;5.186;2024-03-29T10:40:40;5.15;;;0.98;;
72301;SDS011;73902;52.234;5.186;2024-03-29T10:43:10;5.40;;;1.10;;
72301;SDS011;73902;52.234;5.186;2024-03-29T10:45:41;7.35;;;1.20;;
72301;SDS011;73902;52.234;5.186;2024-03-29T10:48:08;7.32;;;0.85;;
72301;SDS011;73902;52.234;5.186;2024-03-29T10:50:37;6.70;;;1.00;;
72301;SDS011;73902;52.234;5.186;2024-03-29T10:53:06;5.07;;;1.20;;
72301;SDS011;73902;52.234;5.186;2024-03-29T10:55:35;4.32;;;0.80;;
72301;SDS011;73902;52.234;5.186;2024-03-29T10:58:03;4.75;;;1.10;;
72301;SDS011;73902;52.234;5.186;2024-03-29T11:00:31;3.45;;;0.90;;
72301;SDS011;73902;52.234;5.186;2024-03-29T11:05:41;5.75;;;1.30;;
72301;SDS011;73902;52.234;5.186;2024-03-29T11:08:11;4.80;;;1.50;;
72301;SDS011;73902;52.234;5.186;2024-03-29T11:10:41;4.95;;;1.35;;
72301;SDS011;73902;52.234;5.186;2024-03-29T11:13:15;3.67;;;1.20;;
72301;SDS011;73902;52.234;5.186;2024-03-29T11:15:45;4.45;;;1.17;;
72301;SDS011;73902;52.234;5.186;2024-03-29T11:18:13;5.97;;;1.27;;
72301;SDS011;73902;52.234;5.186;2024-03-29T11:20:42;5.25;;;0.98;;
72301;SDS011;73902;52.234;5.186;2024-03-29T11:23:12;8.80;;;1.17;;
72301;SDS011;73902;52.234;5.186;2024-03-29T11:25:50;4.68;;;1.10;;
72301;SDS011;73902;52.234;5.186;2024-03-29T11:28:22;5.55;;;1.10;;
72301;SDS011;73902;52.234;5.186;2024-03-29T11:30:49;5.20;;;1.13;;
72301;SDS011;73902;52.234;5.186;2024-03-29T11:33:35;5.03;;;1.25;;
72301;SDS011;73902;52.234;5.186;2024-03-29T11:36:11;3.13;;;0.85;;
72301;SDS011;73902;52.234;5.186;2024-03-29T11:38:37;4.15;;;1.02;;
72301;SDS011;73902;52.234;5.186;2024-03-29T11:41:14;2.75;;;0.98;;
72301;SDS011;73902;52.234;5.186;2024-03-29T11:43:40;3.55;;;1.17;;
72301;SDS011;73902;52.234;5.186;2024-03-29T11:46:17;5.07;;;1.00;;
72301;SDS011;73902;52.234;5.186;2024-03-29T11:48:44;2.78;;;0.80;;
72301;SDS011;73902;52.234;5.186;2024-03-29T11:51:12;4.32;;;0.90;;
72301;SDS011;73902;52.234;5.186;2024-03-29T11:53:40;3.30;;;0.90;;
72301;SDS011;73902;52.234;5.186;2024-03-29T11:56:06;3.35;;;0.82;;
72301;SDS011;73902;52.234;5.186;2024-03-29T11:58:32;4.03;;;0.90;;
72301;SDS011;73902;52.234;5.186;2024-03-29T12:00:59;3.60;;;0.93;;
72301;SDS011;73902;52.234;5.186;2024-03-29T12:03:26;5.90;;;1.08;;
72301;SDS011;73902;52.234;5.186;2024-03-29T12:05:53;3.95;;;1.17;;
72301;SDS011;73902;52.234;5.186;2024-03-29T12:08:23;3.80;;;1.00;;
72301;SDS011;73902;52.234;5.186;2024-03-29T12:10:49;4.82;;;1.40;;
72301;SDS011;73902;52.234;5.186;2024-03-29T12:13:16;5.78;;;1.80;;
72301;SDS011;73902;52.234;5.186;2024-03-29T12:15:42;6.03;;;1.77;;
72301;SDS011;73902;52.234;5.186;2024-03-29T12:18:08;6.35;;;1.77;;
72301;SDS011;73902;52.234;5.186;2024-03-29T12:20:34;5.88;;;1.60;;
72301;SDS011;73902;52.234;5.186;2024-03-29T12:23:02;6.75;;;1.90;;
72301;SDS011;73902;52.234;5.186;2024-03-29T12:25:28;6.30;;;2.28;;
72301;SDS011;73902;52.234;5.186;2024-03-29T12:27:55;7.00;;;2.58;;
72301;SDS011;73902;52.234;5.186;2024-03-29T12:30:21;5.53;;;2.13;;
72301;SDS011;73902;52.234;5.186;2024-03-29T12:32:47;4.95;;;1.90;;
72301;SDS011;73902;52.234;5.186;2024-03-29T12:35:14;5.15;;;2.10;;
72301;SDS011;73902;52.234;5.186;2024-03-29T12:37:47;5.50;;;2.25;;
72301;SDS011;73902;52.234;5.186;2024-03-29T12:40:15;6.88;;;2.58;;
72301;SDS011;73902;52.234;5.186;2024-03-29T12:42:46;7.00;;;2.42;;
72301;SDS011;73902;52.234;5.186;2024-03-29T12:45:12;6.32;;;2.28;;
72301;SDS011;73902;52.234;5.186;2024-03-29T12:47:38;4.88;;;2.10;;
72301;SDS011;73902;52.234;5.186;2024-03-29T12:50:05;6.13;;;2.03;;
72301;SDS011;73902;52.234;5.186;2024-03-29T12:52:40;5.97;;;2.42;;
72301;SDS011;73902;52.234;5.186;2024-03-29T12:55:07;6.25;;;2.30;;
72301;SDS011;73902;52.234;5.186;2024-03-29T12:57:39;6.88;;;2.03;;
72301;SDS011;73902;52.234;5.186;2024-03-29T13:00:07;5.00;;;2.00;;
72301;SDS011;73902;52.234;5.186;2024-03-29T13:02:37;8.60;;;2.35;;
72301;SDS011;73902;52.234;5.186;2024-03-29T13:05:03;5.70;;;2.10;;
72301;SDS011;73902;52.234;5.186;2024-03-29T13:07:30;6.20;;;1.90;;
72301;SDS011;73902;52.234;5.186;2024-03-29T13:09:56;5.03;;;1.63;;
72301;SDS011;73902;52.234;5.186;2024-03-29T13:12:24;5.50;;;1.60;;
72301;SDS011;73902;52.234;5.186;2024-03-29T13:14:50;6.07;;;1.80;;
72301;SDS011;73902;52.234;5.186;2024-03-29T13:17:17;4.50;;;1.40;;
72301;SDS011;73902;52.234;5.186;2024-03-29T13:19:43;4.60;;;1.40;;
72301;SDS011;73902;52.234;5.186;2024-03-29T13:22:09;5.05;;;1.60;;
72301;SDS011;73902;52.234;5.186;2024-03-29T13:24:35;5.15;;;1.80;;
72301;SDS011;73902;52.234;5.186;2024-03-29T13:27:01;4.65;;;1.67;;
72301;SDS011;73902;52.234;5.186;2024-03-29T13:29:28;9.55;;;2.30;;
72301;SDS011;73902;52.234;5.186;2024-03-29T13:31:55;5.35;;;1.50;;
72301;SDS011;73902;52.234;5.186;2024-03-29T13:34:21;5.55;;;1.73;;
72301;SDS011;73902;52.234;5.186;2024-03-29T13:36:47;4.35;;;1.70;;
72301;SDS011;73902;52.234;5.186;2024-03-29T13:39:14;7.03;;;1.90;;
72301;SDS011;73902;52.234;5.186;2024-03-29T13:41:41;5.40;;;1.98;;
72301;SDS011;73902;52.234;5.186;2024-03-29T13:44:07;6.00;;;1.90;;
72301;SDS011;73902;52.234;5.186;2024-03-29T13:46:34;6.80;;;2.38;;
72301;SDS011;73902;52.234;5.186;2024-03-29T13:49:00;6.20;;;2.55;;
72301;SDS011;73902;52.234;5.186;2024-03-29T13:51:26;5.68;;;2.40;;
72301;SDS011;73902;52.234;5.186;2024-03-29T13:53:52;5.78;;;2.15;;
72301;SDS011;73902;52.234;5.186;2024-03-29T13:58:47;6.65;;;1.70;;
72301;SDS011;73902;52.234;5.186;2024-03-29T14:01:14;4.82;;;1.95;;
72301;SDS011;73902;52.234;5.186;2024-03-29T14:03:41;6.78;;;1.92;;
72301;SDS011;73902;52.234;5.186;2024-03-29T14:06:08;4.82;;;1.63;;
72301;SDS011;73902;52.234;5.186;2024-03-29T14:08:34;6.38;;;1.67;;
72301;SDS011;73902;52.234;5.186;2024-03-29T14:11:00;6.70;;;1.85;;
72301;SDS011;73902;52.234;5.186;2024-03-29T14:13:27;5.57;;;1.45;;
72301;SDS011;73902;52.234;5.186;2024-03-29T14:15:53;4.25;;;1.50;;
72301;SDS011;73902;52.234;5.186;2024-03-29T14:18:20;5.60;;;1.73;;
72301;SDS011;73902;52.234;5.186;2024-03-29T14:20:46;5.72;;;2.08;;
72301;SDS011;73902;52.234;5.186;2024-03-29T14:23:12;6.05;;;1.85;;
72301;SDS011;73902;52.234;5.186;2024-03-29T14:25:41;5.40;;;2.00;;
72301;SDS011;73902;52.234;5.186;2024-03-29T14:28:07;5.90;;;2.10;;
72301;SDS011;73902;52.234;5.186;2024-03-29T14:30:34;5.57;;;2.38;;
72301;SDS011;73902;52.234;5.186;2024-03-29T14:33:00;6.43;;;2.42;;
72301;SDS011;73902;52.234;5.186;2024-03-29T14:35:31;8.07;;;2.30;;
72301;SDS011;73902;52.234;5.186;2024-03-29T14:37:57;5.15;;;2.22;;
72301;SDS011;73902;52.234;5.186;2024-03-29T14:40:24;5.95;;;2.20;;
72301;SDS011;73902;52.234;5.186;2024-03-29T14:42:52;4.85;;;2.13;;
72301;SDS011;73902;52.234;5.186;2024-03-29T14:45:23;5.10;;;1.85;;
72301;SDS011;73902;52.234;5.186;2024-03-29T14:47:49;6.68;;;1.75;;
72301;SDS011;73902;52.234;5.186;2024-03-29T14:50:15;5.75;;;2.20;;
72301;SDS011;73902;52.234;5.186;2024-03-29T14:52:41;5.43;;;2.13;;
72301;SDS011;73902;52.234;5.186;2024-03-29T14:55:07;7.82;;;2.03;;
72301;SDS011;73902;52.234;5.186;2024-03-29T14:57:33;5.63;;;2.00;;
72301;SDS011;73902;52.234;5.186;2024-03-29T14:59:59;8.82;;;2.00;;
72301;SDS011;73902;52.234;5.186;2024-03-29T15:02:25;5.47;;;1.45;;